Wellston, Ohio
Current Conditions -  °F | °C
As of 6:15 PM on Wednesday 22 Oct 2014 (Local Time) from KUNI Reporting Station
Overcast Overcast  
Wind Chill: 47°   Ceiling: 2400
Heat Index: 50°   Visibility: 10mi
Dew Point: 42°   Wind: 6mph
Humidity: 75%   Direction: 340°NNW
Pressure: 30.23"   Gusts: NA
Location:  39.12°N, 82.53°W
Report Text: KUNI 222215Z AUTO 34005KT 10SM OVC024 10/06 A3023 RMK AO2 T00980055
Loading
Personal Weather Stations






























Interactive Weather Map
Tropical Storm Tracking
New forecast layout! Learn more

10-Day Weather Forecast

Advertisements
Track Severe Weather on mobile